createdAt,value
2023-02-15T00:02:27.038Z,20.52
2023-02-15T00:04:57.006Z,20.33
2023-02-15T00:07:25.341Z,21.02
2023-02-15T00:09:53.880Z,18.20
2023-02-15T00:12:30.275Z,18.50
2023-02-15T00:15:16.501Z,17.95
2023-02-15T00:18:06.437Z,23.17
2023-02-15T00:20:48.552Z,18.52
2023-02-15T00:23:36.668Z,15.27
2023-02-15T00:26:07.250Z,16.08
2023-02-15T00:28:36.840Z,17.02
2023-02-15T00:31:06.273Z,16.55
2023-02-15T00:33:41.205Z,17.17
2023-02-15T00:36:11.257Z,16.55
2023-02-15T00:38:40.767Z,19.10
2023-02-15T00:41:11.636Z,17.27
2023-02-15T00:43:42.651Z,17.58
2023-02-15T00:46:14.317Z,16.60
2023-02-15T00:48:43.454Z,18.50
2023-02-15T00:51:12.437Z,17.55
2023-02-15T00:53:43.242Z,16.63
2023-02-15T00:56:15.498Z,17.92
2023-02-15T00:58:44.493Z,16.48
2023-02-15T01:01:15.222Z,16.15
2023-02-15T01:03:50.644Z,17.83
2023-02-15T01:06:22.119Z,17.83
2023-02-15T01:08:50.983Z,17.38
2023-02-15T01:11:23.094Z,17.90
2023-02-15T01:13:55.474Z,17.25
2023-02-15T01:16:26.350Z,17.58
2023-02-15T01:19:14.335Z,17.95
2023-02-15T01:21:44.653Z,17.17
2023-02-15T01:24:14.918Z,18.27
2023-02-15T01:26:43.762Z,18.25
2023-02-15T01:29:31.354Z,17.55
2023-02-15T01:32:09.186Z,18.38
2023-02-15T01:34:56.841Z,19.40
2023-02-15T01:37:38.523Z,17.33
2023-02-15T01:40:09.116Z,18.27
2023-02-15T01:42:44.511Z,17.98
2023-02-15T01:45:18.743Z,17.13
2023-02-15T01:48:02.849Z,17.15
2023-02-15T01:50:46.357Z,17.58
2023-02-15T01:53:25.699Z,18.50
2023-02-15T01:56:16.020Z,19.38
2023-02-15T01:58:58.696Z,17.55
2023-02-15T02:01:27.752Z,18.38
2023-02-15T02:04:20.065Z,18.10
2023-02-15T02:07:04.433Z,19.02
2023-02-15T02:09:42.986Z,18.65
2023-02-15T02:12:23.772Z,18.73
2023-02-15T02:15:08.432Z,19.13
2023-02-15T02:17:59.014Z,18.70
2023-02-15T02:20:40.310Z,20.08
2023-02-15T02:23:17.912Z,18.88
2023-02-15T02:25:58.370Z,19.98
2023-02-15T02:28:29.280Z,16.40
2023-02-15T02:31:08.485Z,18.27
2023-02-15T02:33:44.868Z,18.70
2023-02-15T02:36:31.475Z,19.08
2023-02-15T02:39:02.852Z,18.10
2023-02-15T02:41:39.227Z,18.60
2023-02-15T02:44:14.630Z,19.02
2023-02-15T02:46:53.205Z,19.65
2023-02-15T02:49:34.474Z,19.33
2023-02-15T02:52:35.656Z,19.35
2023-02-15T02:55:07.581Z,19.50
2023-02-15T02:57:45.483Z,18.65
2023-02-15T03:00:16.678Z,19.17
2023-02-15T03:03:08.984Z,19.40
2023-02-15T03:05:56.833Z,18.92
2023-02-15T03:08:44.119Z,20.98
2023-02-15T03:11:31.949Z,20.23
2023-02-15T03:14:20.037Z,20.10
2023-02-15T03:17:07.865Z,19.13
2023-02-15T03:19:57.749Z,20.42
2023-02-15T03:22:52.408Z,19.67
2023-02-15T03:25:43.868Z,18.75
2023-02-15T03:28:37.385Z,19.48
2023-02-15T03:31:12.019Z,19.73
2023-02-15T03:33:50.042Z,19.77
2023-02-15T03:36:24.956Z,21.67
2023-02-15T03:39:30.083Z,20.40
2023-02-15T03:42:20.788Z,20.20
2023-02-15T03:45:11.155Z,20.05
2023-02-15T03:48:00.648Z,19.15
2023-02-15T03:50:52.212Z,20.80
2023-02-15T03:53:34.610Z,21.27
2023-02-15T03:59:08.845Z,18.35
2023-02-15T04:01:59.355Z,19.25
2023-02-15T04:04:32.791Z,18.83
2023-02-15T04:07:01.587Z,20.55
2023-02-15T04:09:47.901Z,18.50
2023-02-15T04:12:17.340Z,20.50
2023-02-15T04:15:06.114Z,19.83
2023-02-15T04:17:38.133Z,21.20
2023-02-15T04:20:24.110Z,19.48
2023-02-15T04:23:12.454Z,19.73
2023-02-15T04:25:41.837Z,19.95
2023-02-15T04:28:12.463Z,19.77
2023-02-15T04:30:41.184Z,20.90
2023-02-15T04:33:26.386Z,21.17
2023-02-15T04:35:55.781Z,19.63
2023-02-15T04:38:24.978Z,20.55
2023-02-15T04:40:54.248Z,20.02
2023-02-15T04:43:22.656Z,20.52
2023-02-15T04:45:52.169Z,20.17
2023-02-15T04:48:20.476Z,20.27
2023-02-15T04:50:49.176Z,20.20
2023-02-15T04:53:19.156Z,20.25
2023-02-15T04:55:48.488Z,20.40
2023-02-15T04:58:16.967Z,19.17
2023-02-15T05:00:45.598Z,20.98
2023-02-15T05:03:30.263Z,18.60
2023-02-15T05:05:59.891Z,19.25
2023-02-15T05:08:28.996Z,20.23
2023-02-15T05:10:57.613Z,18.15
2023-02-15T05:13:26.257Z,18.80
2023-02-15T05:15:55.425Z,17.58
2023-02-15T05:18:42.998Z,19.35
2023-02-15T05:21:32.523Z,19.33
2023-02-15T05:24:37.781Z,19.73
2023-02-15T05:27:43.161Z,19.58
2023-02-15T05:30:12.656Z,18.55
2023-02-15T05:32:51.369Z,21.63
2023-02-15T05:35:19.701Z,19.88
2023-02-15T05:37:50.792Z,19.52
2023-02-15T05:40:21.471Z,18.75
2023-02-15T05:42:49.857Z,19.65
2023-02-15T05:45:18.266Z,21.13
2023-02-15T05:47:49.905Z,18.17
2023-02-15T05:50:18.454Z,20.33
2023-02-15T05:53:07.919Z,19.98
2023-02-15T05:55:46.905Z,18.80
2023-02-15T05:58:35.804Z,19.27
2023-02-15T06:01:25.617Z,18.77
2023-02-15T06:03:56.639Z,19.38
2023-02-15T06:06:44.239Z,18.38
2023-02-15T06:09:27.130Z,20.10
2023-02-15T06:12:15.072Z,17.83
2023-02-15T06:14:51.835Z,19.52
2023-02-15T06:17:20.404Z,18.60
2023-02-15T06:19:51.524Z,19.30
2023-02-15T06:25:10.786Z,19.02
2023-02-15T06:27:46.639Z,18.90
2023-02-15T06:30:24.823Z,19.63
2023-02-15T06:33:12.539Z,19.73
2023-02-15T06:35:44.078Z,20.63
2023-02-15T06:38:31.856Z,19.67
2023-02-15T06:41:21.950Z,21.25
2023-02-15T06:44:12.088Z,17.80
2023-02-15T06:46:59.676Z,19.38
2023-02-15T06:49:49.697Z,17.60
2023-02-15T06:52:37.268Z,18.73
2023-02-15T06:55:13.335Z,20.50
2023-02-15T06:58:00.984Z,17.83
2023-02-15T07:00:50.324Z,18.60
2023-02-15T07:03:37.970Z,16.88
2023-02-15T07:06:25.674Z,18.55
2023-02-15T07:08:54.621Z,17.55
2023-02-15T07:11:40.846Z,19.20
2023-02-15T07:14:09.580Z,19.17
2023-02-15T07:16:38.089Z,18.42
2023-02-15T07:19:09.172Z,18.77
2023-02-15T07:21:42.833Z,20.00
2023-02-15T07:24:13.788Z,19.40
2023-02-15T07:26:46.698Z,18.57
2023-02-15T07:29:33.806Z,17.17
2023-02-15T07:32:21.469Z,17.42
2023-02-15T07:35:09.350Z,17.85
2023-02-15T07:37:56.930Z,16.83
2023-02-15T07:40:44.820Z,16.60
2023-02-15T07:43:34.521Z,17.38
2023-02-15T07:46:22.555Z,16.45
2023-02-15T07:49:10.233Z,16.88
2023-02-15T07:51:38.892Z,18.13
2023-02-15T07:54:07.773Z,14.40
2023-02-15T07:56:37.500Z,15.35
2023-02-15T07:59:09.177Z,16.42
2023-02-15T08:01:43.366Z,15.38
2023-02-15T08:04:12.102Z,15.35
2023-02-15T08:06:41.254Z,16.20
2023-02-15T08:09:10.477Z,15.98
2023-02-15T08:11:40.994Z,14.88
2023-02-15T08:14:11.156Z,16.33
2023-02-15T08:16:46.056Z,17.08
2023-02-15T08:19:14.295Z,17.67
2023-02-15T08:21:44.079Z,16.17
2023-02-15T08:24:13.485Z,14.13
2023-02-15T08:26:47.736Z,15.63
2023-02-15T08:29:17.364Z,16.47
2023-02-15T08:31:46.317Z,14.98
2023-02-15T08:34:22.404Z,15.07
2023-02-15T08:36:52.936Z,14.73
2023-02-15T08:39:24.763Z,16.13
2023-02-15T08:41:57.663Z,13.50
2023-02-15T08:44:49.439Z,14.18
2023-02-15T08:47:18.707Z,14.95
2023-02-15T08:49:47.132Z,13.07
2023-02-15T08:52:18.119Z,12.98
2023-02-15T08:55:05.862Z,13.10
2023-02-15T08:57:56.482Z,13.93
2023-02-15T09:00:46.554Z,13.82
2023-02-15T09:03:35.161Z,13.55
2023-02-15T09:06:03.817Z,14.25
2023-02-15T09:08:33.975Z,14.75
2023-02-15T09:11:12.900Z,14.70
2023-02-15T09:13:42.831Z,12.05
2023-02-15T09:16:12.358Z,12.68
2023-02-15T09:18:42.062Z,11.32
2023-02-15T09:21:14.749Z,10.90
2023-02-15T09:23:43.943Z,9.63
2023-02-15T09:26:16.664Z,12.88
2023-02-15T09:29:04.845Z,12.15
2023-02-15T09:31:42.217Z,12.65
2023-02-15T09:34:30.730Z,9.35
2023-02-15T09:37:00.254Z,10.80
2023-02-15T09:39:29.000Z,12.00
2023-02-15T09:42:00.697Z,10.88
2023-02-15T09:44:34.589Z,12.02
2023-02-15T09:47:03.188Z,12.23
2023-02-15T09:49:53.806Z,13.93
2023-02-15T09:52:35.973Z,12.35
2023-02-15T09:55:13.222Z,12.95
2023-02-15T09:57:46.339Z,12.35
2023-02-15T10:00:14.636Z,14.60
2023-02-15T10:03:12.929Z,11.80
2023-02-15T10:05:40.979Z,11.00
2023-02-15T10:08:09.034Z,10.82
2023-02-15T10:10:41.254Z,10.93
2023-02-15T10:13:17.577Z,11.65
2023-02-15T10:15:54.653Z,11.18
2023-02-15T10:18:25.797Z,11.60
2023-02-15T10:21:06.721Z,11.55
2023-02-15T10:24:00.748Z,8.70
2023-02-15T10:26:35.869Z,11.15
2023-02-15T10:29:28.826Z,11.57
2023-02-15T10:32:12.394Z,8.50
2023-02-15T10:35:01.823Z,10.38
2023-02-15T10:38:00.732Z,11.98
2023-02-15T10:40:37.065Z,9.80
2023-02-15T10:43:32.689Z,10.90
2023-02-15T10:46:03.667Z,9.82
2023-02-15T10:48:36.277Z,10.10
2023-02-15T10:51:12.956Z,10.35
2023-02-15T10:53:58.166Z,10.38
2023-02-15T10:56:59.038Z,10.53
2023-02-15T10:59:35.540Z,10.32
2023-02-15T11:02:09.998Z,10.82
2023-02-15T11:04:44.186Z,10.70
2023-02-15T11:07:22.282Z,10.52
2023-02-15T11:09:54.319Z,10.52
2023-02-15T11:12:37.929Z,10.45
2023-02-15T11:15:21.862Z,10.45
2023-02-15T11:18:24.729Z,9.35
2023-02-15T11:21:19.764Z,8.52
2023-02-15T11:23:55.325Z,9.70
2023-02-15T11:26:39.581Z,10.02
2023-02-15T11:29:35.756Z,9.95
2023-02-15T11:32:20.125Z,10.73
2023-02-15T11:35:00.559Z,10.63
2023-02-15T11:38:17.498Z,8.73
2023-02-15T11:40:58.418Z,9.32
2023-02-15T11:43:56.324Z,10.02
2023-02-15T11:46:26.986Z,10.32
2023-02-15T11:48:55.866Z,10.10
2023-02-15T11:51:24.879Z,10.35
2023-02-15T11:53:55.619Z,10.00
2023-02-15T11:56:27.669Z,9.38
2023-02-15T11:59:19.046Z,10.68
2023-02-15T12:01:48.288Z,10.32
2023-02-15T12:04:34.745Z,10.88
2023-02-15T12:07:09.902Z,10.30
2023-02-15T12:10:01.660Z,9.55
2023-02-15T12:13:09.190Z,10.07
2023-02-15T12:15:56.482Z,9.93
2023-02-15T12:18:45.623Z,10.40
2023-02-15T12:21:16.058Z,10.15
2023-02-15T12:23:52.614Z,9.70
2023-02-15T12:26:32.424Z,9.60
2023-02-15T12:29:08.670Z,9.63
2023-02-15T12:31:56.655Z,8.60
2023-02-15T12:34:48.235Z,8.77
2023-02-15T12:37:38.457Z,9.18
2023-02-15T12:40:30.930Z,9.93
2023-02-15T12:43:27.341Z,9.45
2023-02-15T12:46:15.334Z,8.25
2023-02-15T12:49:21.727Z,8.13
2023-02-15T12:52:07.690Z,8.93
2023-02-15T12:54:55.311Z,9.60
2023-02-15T12:57:34.895Z,9.27
2023-02-15T13:00:22.738Z,9.40
2023-02-15T13:03:18.787Z,8.25
2023-02-15T13:06:08.342Z,9.35
2023-02-15T13:08:52.259Z,9.65
2023-02-15T13:11:35.980Z,9.32
2023-02-15T13:14:22.817Z,8.13
2023-02-15T13:16:57.709Z,7.90
2023-02-15T13:19:28.880Z,9.60
2023-02-15T13:22:00.211Z,9.60
2023-02-15T13:24:35.509Z,8.73
2023-02-15T13:27:24.700Z,9.20
2023-02-15T13:30:04.580Z,8.48
2023-02-15T13:32:54.618Z,8.75
2023-02-15T13:36:08.734Z,8.60
2023-02-15T13:38:49.219Z,7.85
2023-02-15T13:41:19.704Z,8.63
2023-02-15T13:43:55.559Z,8.20
2023-02-15T13:46:34.359Z,8.77
2023-02-15T13:49:36.327Z,8.75
2023-02-15T13:52:14.401Z,7.85
2023-02-15T13:54:45.489Z,7.78
2023-02-15T13:57:20.038Z,7.85
2023-02-15T13:59:59.838Z,8.30
2023-02-15T14:02:53.324Z,8.90
2023-02-15T14:05:26.940Z,8.38
2023-02-15T14:08:20.082Z,8.20
2023-02-15T14:11:01.732Z,8.10
2023-02-15T14:13:36.242Z,7.88
2023-02-15T14:16:19.319Z,6.88
2023-02-15T14:19:01.293Z,8.32
2023-02-15T14:21:51.688Z,8.02
2023-02-15T14:24:25.056Z,8.00
2023-02-15T14:27:09.307Z,7.20
2023-02-15T14:29:38.683Z,8.05
2023-02-15T14:32:12.574Z,7.28
2023-02-15T14:34:46.626Z,8.05
2023-02-15T14:37:21.530Z,8.13
2023-02-15T14:40:15.246Z,8.55
2023-02-15T14:42:47.351Z,9.15
2023-02-15T14:45:24.933Z,8.98
2023-02-15T14:48:06.412Z,7.78
2023-02-15T14:50:38.251Z,8.52
2023-02-15T14:53:28.779Z,8.13
2023-02-15T14:56:14.466Z,7.28
2023-02-15T14:58:52.569Z,8.15
2023-02-15T15:01:52.311Z,8.55
2023-02-15T15:04:43.823Z,8.35
2023-02-15T15:07:17.970Z,8.18
2023-02-15T15:09:48.395Z,8.32
2023-02-15T15:12:23.129Z,8.50
2023-02-15T15:14:55.767Z,8.63
2023-02-15T15:17:38.736Z,7.47
2023-02-15T15:20:08.913Z,8.18
2023-02-15T15:22:41.139Z,9.48
2023-02-15T15:25:13.752Z,7.25
2023-02-15T15:27:43.969Z,7.95
2023-02-15T15:30:15.260Z,8.05
2023-02-15T15:32:57.066Z,7.57
2023-02-15T15:35:43.989Z,8.48
2023-02-15T15:38:21.006Z,8.25
2023-02-15T15:41:13.115Z,8.20
2023-02-15T15:43:50.552Z,8.48
2023-02-15T15:46:37.680Z,8.02
2023-02-15T15:49:14.303Z,8.98
2023-02-15T15:51:43.369Z,8.93
2023-02-15T15:54:19.121Z,9.00
2023-02-15T15:56:59.110Z,8.20
2023-02-15T15:59:36.116Z,11.35
2023-02-15T16:02:09.420Z,8.18
2023-02-15T16:04:52.145Z,8.93
2023-02-15T16:07:29.051Z,8.55
2023-02-15T16:10:02.577Z,12.60
2023-02-15T16:12:36.252Z,9.43
2023-02-15T16:15:22.067Z,8.73
2023-02-15T16:17:55.916Z,7.63
2023-02-15T16:20:32.451Z,8.73
2023-02-15T16:23:07.880Z,8.77
2023-02-15T16:25:40.115Z,8.77
2023-02-15T16:28:19.495Z,8.55
2023-02-15T16:30:47.935Z,8.73
2023-02-15T16:33:17.358Z,8.88
2023-02-15T16:35:58.677Z,8.35
2023-02-15T16:38:43.730Z,8.93
2023-02-15T16:41:29.008Z,8.73
2023-02-15T16:44:02.244Z,13.88
2023-02-15T16:46:42.399Z,15.20
2023-02-15T16:49:18.104Z,24.98
2023-02-15T16:51:46.926Z,18.10
2023-02-15T16:54:20.853Z,15.30
2023-02-15T16:59:26.453Z,10.15
2023-02-15T17:02:43.020Z,18.30
2023-02-15T17:05:42.677Z,10.25
2023-02-15T17:08:34.908Z,9.63
2023-02-15T17:11:12.382Z,9.55
2023-02-15T17:14:04.361Z,10.57
2023-02-15T17:16:38.128Z,10.68
2023-02-15T17:19:21.209Z,10.55
2023-02-15T17:21:57.130Z,10.45
2023-02-15T17:24:32.587Z,9.80
2023-02-15T17:27:12.362Z,9.52
2023-02-15T17:29:59.371Z,9.27
2023-02-15T17:32:30.367Z,10.57
2023-02-15T17:35:09.477Z,9.18
2023-02-15T17:37:49.092Z,9.40
2023-02-15T17:40:23.958Z,9.10
2023-02-15T17:42:59.190Z,9.60
2023-02-15T17:45:35.654Z,9.57
2023-02-15T17:48:20.684Z,10.88
2023-02-15T17:51:04.685Z,10.20
2023-02-15T17:53:40.909Z,10.73
2023-02-15T17:56:27.524Z,11.90
2023-02-15T17:59:15.256Z,11.05
2023-02-15T18:02:09.251Z,10.52
2023-02-15T18:05:14.506Z,12.52
2023-02-15T18:08:01.374Z,10.45
2023-02-15T18:10:48.843Z,11.25
2023-02-15T18:13:17.735Z,10.23
2023-02-15T18:15:49.284Z,9.85
2023-02-15T18:18:51.103Z,9.98
2023-02-15T18:21:35.621Z,8.90
2023-02-15T18:24:28.000Z,9.13
2023-02-15T18:26:58.480Z,10.07
2023-02-15T18:29:31.117Z,10.40
2023-02-15T18:32:00.813Z,10.40
2023-02-15T18:34:33.425Z,10.27
2023-02-15T18:37:20.593Z,10.07
2023-02-15T18:40:15.341Z,11.70
2023-02-15T18:43:03.011Z,12.63
2023-02-15T18:45:43.273Z,12.13
2023-02-15T18:48:13.359Z,9.63
2023-02-15T18:50:44.306Z,10.38
2023-02-15T18:53:16.714Z,11.23
2023-02-15T18:55:46.494Z,11.57
2023-02-15T18:58:19.163Z,11.75
2023-02-15T19:00:50.788Z,11.65
2023-02-15T19:03:36.458Z,10.82
2023-02-15T19:06:10.584Z,11.63
2023-02-15T19:08:48.354Z,11.80
2023-02-15T19:11:35.975Z,11.15
2023-02-15T19:14:20.675Z,12.13
2023-02-15T19:17:12.277Z,12.00
2023-02-15T19:19:59.386Z,12.32
2023-02-15T19:22:34.062Z,12.60
2023-02-15T19:25:04.365Z,13.27
2023-02-15T19:27:36.256Z,12.07
2023-02-15T19:30:08.795Z,12.13
2023-02-15T19:32:47.261Z,12.77
2023-02-15T19:35:19.853Z,11.98
2023-02-15T19:37:54.472Z,11.63
2023-02-15T19:40:27.573Z,13.00
2023-02-15T19:42:56.694Z,13.23
2023-02-15T19:45:32.665Z,12.90
2023-02-15T19:48:03.482Z,18.25
2023-02-15T19:50:35.837Z,14.07
2023-02-15T19:53:21.374Z,14.23
2023-02-15T19:56:00.942Z,13.60
2023-02-15T19:58:46.373Z,11.93
2023-02-15T20:01:26.215Z,13.65
2023-02-15T20:04:14.239Z,13.13
2023-02-15T20:07:03.876Z,13.48
2023-02-15T20:09:46.757Z,12.10
2023-02-15T20:12:34.412Z,12.85
2023-02-15T20:15:23.942Z,12.98
2023-02-15T20:18:12.025Z,12.82
2023-02-15T20:20:52.643Z,12.63
2023-02-15T20:23:30.728Z,13.55
2023-02-15T20:26:03.400Z,12.88
2023-02-15T20:28:45.232Z,12.43
2023-02-15T20:31:20.773Z,13.02
2023-02-15T20:33:53.358Z,13.27
2023-02-15T20:36:23.071Z,12.88
2023-02-15T20:38:51.637Z,12.00
2023-02-15T20:41:38.323Z,13.07
2023-02-15T20:44:23.533Z,13.00
2023-02-15T20:46:54.130Z,13.30
2023-02-15T20:49:27.242Z,12.88
2023-02-15T20:51:58.403Z,11.68
2023-02-15T20:54:40.001Z,12.98
2023-02-15T20:57:14.379Z,13.30
2023-02-15T20:59:46.708Z,11.88
2023-02-15T21:02:34.476Z,13.70
2023-02-15T21:05:06.617Z,13.52
2023-02-15T21:07:40.510Z,14.52
2023-02-15T21:10:15.230Z,12.57
2023-02-15T21:12:49.030Z,13.30
2023-02-15T21:15:27.577Z,12.98
2023-02-15T21:18:21.697Z,12.82
2023-02-15T21:20:57.660Z,12.75
2023-02-15T21:23:45.511Z,14.02
2023-02-15T21:26:33.171Z,12.88
2023-02-15T21:29:03.980Z,12.73
2023-02-15T21:31:51.823Z,13.60
2023-02-15T21:34:39.902Z,13.15
2023-02-15T21:37:29.279Z,13.32
2023-02-15T21:40:15.473Z,14.50
2023-02-15T21:43:17.877Z,13.85
2023-02-15T21:46:12.688Z,13.93
2023-02-15T21:49:03.201Z,13.23
2023-02-15T21:51:54.625Z,13.77
2023-02-15T21:54:25.743Z,13.95
2023-02-15T21:57:14.385Z,13.52
2023-02-15T21:59:53.692Z,14.07
2023-02-15T22:02:36.040Z,13.57
2023-02-15T22:05:28.504Z,13.90
2023-02-15T22:08:13.995Z,14.18
2023-02-15T22:10:43.562Z,14.40
2023-02-15T22:13:15.126Z,14.23
2023-02-15T22:15:47.470Z,14.95
2023-02-15T22:18:21.566Z,13.38
2023-02-15T22:20:55.997Z,14.77
2023-02-15T22:23:27.315Z,14.40
2023-02-15T22:26:00.497Z,15.20
2023-02-15T22:28:36.792Z,15.07
2023-02-15T22:31:24.554Z,15.20
2023-02-15T22:34:23.857Z,15.15
2023-02-15T22:37:06.004Z,15.52
2023-02-15T22:39:57.840Z,14.93
2023-02-15T22:42:29.802Z,15.88
2023-02-15T22:45:01.165Z,14.40
2023-02-15T22:47:41.017Z,15.80
2023-02-15T22:50:19.467Z,15.98
2023-02-15T22:52:57.110Z,14.18
2023-02-15T22:55:40.298Z,15.98
2023-02-15T22:58:22.453Z,15.90
2023-02-15T23:01:19.196Z,14.63
2023-02-15T23:04:12.699Z,17.00
2023-02-15T23:06:41.237Z,16.35
2023-02-15T23:09:09.689Z,15.85
2023-02-15T23:11:43.046Z,15.63
2023-02-15T23:14:18.516Z,14.82
2023-02-15T23:17:06.090Z,15.20
2023-02-15T23:19:49.718Z,12.60
2023-02-15T23:22:25.905Z,16.10
2023-02-15T23:24:56.931Z,18.00
2023-02-15T23:27:59.928Z,16.13
2023-02-15T23:30:28.858Z,16.38
2023-02-15T23:33:12.876Z,16.50
2023-02-15T23:35:42.084Z,16.20
2023-02-15T23:38:19.392Z,17.02
2023-02-15T23:41:09.961Z,16.73
2023-02-15T23:43:40.329Z,16.40
2023-02-15T23:46:39.744Z,15.60
2023-02-15T23:49:17.397Z,16.10
2023-02-15T23:52:03.028Z,17.17
2023-02-15T23:54:39.717Z,16.52
2023-02-15T23:57:16.651Z,17.23
